Time;durP1;ratioP1;P1;durP2;ratioP2;P2;SDS_P1;SDS_P2;PMS_P1;PMS_P2;Temp;Humidity;BMP_temperature;BMP_pressure;BME280_temperature;BME280_humidity;BME280_pressure;Samples;Min_cycle;Max_cycle;Signal;HPM_P1;HPM_P2
2021/10/06 00:00:41;;;;;;;6.25;2.90;;;11.60;99.90;;;;;;5015893;28;20028;-63
2021/10/06 00:03:06;;;;;;;5.55;2.65;;;11.60;99.90;;;;;;5013343;28;20033;-63
2021/10/06 00:05:32;;;;;;;4.70;2.40;;;11.50;99.90;;;;;;5025511;28;20095;-63
2021/10/06 00:07:57;;;;;;;6.20;2.45;;;11.50;99.90;;;;;;5031984;28;20029;-63
2021/10/06 00:10:23;;;;;;;6.40;2.47;;;11.50;99.90;;;;;;5031996;28;20048;-63
2021/10/06 00:12:49;;;;;;;5.80;2.30;;;11.50;99.90;;;;;;5024132;28;20373;-63
2021/10/06 00:15:14;;;;;;;4.20;1.90;;;11.50;99.90;;;;;;5028027;28;20397;-63
2021/10/06 00:17:41;;;;;;;6.10;1.75;;;11.50;99.90;;;;;;5018331;28;20018;-63
2021/10/06 00:20:10;;;;;;;4.78;1.60;;;11.50;99.90;;;;;;5023195;28;20440;-63
2021/10/06 00:22:35;;;;;;;3.57;1.17;;;11.50;99.90;;;;;;5021919;28;20029;-63
2021/10/06 00:25:01;;;;;;;7.05;1.50;;;11.50;99.90;;;;;;5024308;28;20032;-63
2021/10/06 00:27:27;;;;;;;6.15;1.42;;;11.50;99.90;;;;;;5025985;28;20022;-63
2021/10/06 00:29:52;;;;;;;7.65;1.35;;;11.60;99.90;;;;;;5027768;28;20104;-63
2021/10/06 00:32:18;;;;;;;6.63;1.58;;;11.60;99.90;;;;;;5025735;28;20030;-63
2021/10/06 00:34:43;;;;;;;4.05;0.70;;;11.50;99.90;;;;;;5029273;28;20075;-63
2021/10/06 00:37:09;;;;;;;7.72;1.20;;;11.60;99.90;;;;;;5026467;28;20026;-63
2021/10/06 00:39:34;;;;;;;3.83;1.20;;;11.60;99.90;;;;;;5023739;28;20026;-63
2021/10/06 00:42:00;;;;;;;3.13;0.80;;;11.60;99.90;;;;;;5030311;28;20025;-63
2021/10/06 00:44:33;;;;;;;7.88;1.10;;;11.60;99.90;;;;;;5024023;28;20045;-63
2021/10/06 00:46:59;;;;;;;3.92;1.45;;;11.60;99.90;;;;;;5029335;28;20517;-63
2021/10/06 00:49:24;;;;;;;7.13;1.63;;;11.60;99.90;;;;;;5029741;28;20068;-63
2021/10/06 00:51:50;;;;;;;3.92;1.02;;;11.60;99.90;;;;;;5020657;28;21231;-63
2021/10/06 00:54:15;;;;;;;7.55;1.08;;;11.60;99.90;;;;;;5022469;28;20101;-63
2021/10/06 00:56:41;;;;;;;5.20;1.10;;;11.60;99.90;;;;;;5032320;28;20473;-63
2021/10/06 00:59:06;;;;;;;8.07;1.52;;;11.60;99.90;;;;;;5026214;28;20055;-63
2021/10/06 01:01:32;;;;;;;5.97;1.35;;;11.60;99.90;;;;;;5027530;28;20033;-63
2021/10/06 01:03:58;;;;;;;6.68;1.65;;;11.60;99.90;;;;;;5018554;28;20564;-63
2021/10/06 01:06:23;;;;;;;5.70;1.30;;;11.60;99.90;;;;;;5029690;28;20060;-63
2021/10/06 01:08:49;;;;;;;5.68;1.50;;;11.50;99.90;;;;;;5029149;28;20079;-63
2021/10/06 01:11:15;;;;;;;4.53;1.35;;;11.50;99.90;;;;;;5027001;28;20018;-63
2021/10/06 01:13:41;;;;;;;10.75;1.70;;;11.50;99.90;;;;;;5028081;28;20477;-63
2021/10/06 01:16:06;;;;;;;6.75;1.27;;;11.50;99.90;;;;;;5024125;28;20028;-63
2021/10/06 01:18:33;;;;;;;4.75;0.90;;;11.50;99.90;;;;;;5027547;28;20075;-63
2021/10/06 01:21:12;;;;;;;6.53;1.70;;;11.60;99.90;;;;;;5023369;28;20045;-63
2021/10/06 01:23:38;;;;;;;5.65;1.15;;;11.60;99.90;;;;;;5016783;28;20033;-63
2021/10/06 01:26:04;;;;;;;6.05;1.38;;;11.60;99.90;;;;;;5028171;28;20014;-63
2021/10/06 01:28:30;;;;;;;6.13;1.58;;;11.60;99.90;;;;;;5032806;28;20033;-64
2021/10/06 01:30:56;;;;;;;4.55;1.23;;;11.70;99.90;;;;;;5028500;28;20097;-63
2021/10/06 01:33:22;;;;;;;6.28;1.40;;;11.70;99.90;;;;;;5031930;28;20037;-64
2021/10/06 01:35:47;;;;;;;8.73;1.13;;;11.70;99.90;;;;;;5026964;28;20104;-63
2021/10/06 01:38:13;;;;;;;9.63;1.50;;;11.70;99.90;;;;;;5028214;28;20436;-64
2021/10/06 01:40:38;;;;;;;8.82;1.27;;;11.60;99.90;;;;;;5021966;28;20028;-63
2021/10/06 01:43:04;;;;;;;5.40;1.10;;;11.60;99.90;;;;;;5025165;28;20026;-64
2021/10/06 01:45:31;;;;;;;10.75;1.30;;;11.50;99.90;;;;;;5028458;28;20021;-63
2021/10/06 01:48:05;;;;;;;9.13;1.10;;;11.50;99.90;;;;;;5032115;28;20038;-63
2021/10/06 01:50:31;;;;;;;8.45;1.30;;;11.50;99.90;;;;;;5026488;28;20034;-64
2021/10/06 01:52:56;;;;;;;5.60;1.15;;;11.50;99.90;;;;;;5029922;28;20071;-64
2021/10/06 01:55:30;;;;;;;4.72;1.00;;;11.50;99.90;;;;;;5020398;28;20025;-63
2021/10/06 01:57:58;;;;;;;5.75;0.82;;;11.50;99.90;;;;;;5027547;28;20084;-63
2021/10/06 02:00:24;;;;;;;6.57;1.20;;;11.50;99.90;;;;;;5024396;28;20033;-64
2021/10/06 02:02:49;;;;;;;4.38;1.02;;;11.50;99.90;;;;;;5022254;28;20053;-64
2021/10/06 02:05:15;;;;;;;6.85;1.85;;;11.50;99.90;;;;;;5023593;28;20515;-64
2021/10/06 02:07:41;;;;;;;5.55;1.63;;;11.50;99.90;;;;;;5024408;28;20028;-63
2021/10/06 02:10:07;;;;;;;7.78;1.40;;;11.50;99.90;;;;;;5029989;28;20096;-63
2021/10/06 02:12:33;;;;;;;6.78;1.23;;;11.50;99.90;;;;;;5028976;28;20095;-63
2021/10/06 02:14:58;;;;;;;5.55;1.40;;;11.50;99.90;;;;;;5030898;28;20481;-63
2021/10/06 02:17:24;;;;;;;8.93;1.20;;;11.50;99.90;;;;;;5027154;28;20449;-63
2021/10/06 02:19:49;;;;;;;4.88;0.90;;;11.50;99.90;;;;;;5030286;28;20017;-63
2021/10/06 02:22:15;;;;;;;7.03;1.00;;;11.40;99.90;;;;;;5019907;28;20021;-63
2021/10/06 02:24:41;;;;;;;4.93;0.95;;;11.40;99.90;;;;;;5027006;28;20029;-63
2021/10/06 02:27:06;;;;;;;4.25;1.10;;;11.40;99.90;;;;;;5026499;28;20481;-63
2021/10/06 02:29:32;;;;;;;9.45;1.38;;;11.40;99.90;;;;;;5028366;28;20053;-64
2021/10/06 02:31:57;;;;;;;4.47;1.20;;;11.30;99.90;;;;;;5026767;28;20029;-63
2021/10/06 02:34:23;;;;;;;7.60;1.00;;;11.30;99.90;;;;;;5014583;28;20478;-63
2021/10/06 02:36:48;;;;;;;6.97;1.20;;;11.30;99.90;;;;;;5026911;28;20492;-63
2021/10/06 02:39:14;;;;;;;4.15;1.23;;;11.30;99.90;;;;;;5027254;28;20033;-64
2021/10/06 02:41:39;;;;;;;5.25;1.40;;;11.30;99.90;;;;;;5032259;28;20393;-63
2021/10/06 02:44:05;;;;;;;4.78;1.55;;;11.30;99.90;;;;;;5027484;28;20397;-64
2021/10/06 02:46:31;;;;;;;8.23;2.28;;;11.30;99.90;;;;;;5031220;28;20076;-64
2021/10/06 02:48:56;;;;;;;5.13;1.20;;;11.30;99.90;;;;;;5031921;28;20022;-63
2021/10/06 02:51:22;;;;;;;8.07;1.38;;;11.30;99.90;;;;;;5017867;28;20030;-63
2021/10/06 02:53:47;;;;;;;7.50;1.60;;;11.30;99.90;;;;;;5026470;28;20028;-63
2021/10/06 02:56:14;;;;;;;4.30;1.55;;;11.30;99.90;;;;;;5018838;28;20053;-63
2021/10/06 02:58:40;;;;;;;4.45;1.40;;;11.30;99.90;;;;;;5031925;28;20547;-63
2021/10/06 03:01:05;;;;;;;3.75;1.33;;;11.20;99.90;;;;;;5024818;28;20033;-63
2021/10/06 03:03:31;;;;;;;5.45;1.30;;;11.20;99.90;;;;;;5026520;28;20030;-64
2021/10/06 03:05:57;;;;;;;6.20;1.17;;;11.30;99.90;;;;;;5025124;28;20418;-63
2021/10/06 03:08:22;;;;;;;3.30;1.00;;;11.20;99.90;;;;;;5027417;28;20034;-64
2021/10/06 03:10:48;;;;;;;8.90;1.50;;;11.20;99.90;;;;;;5032018;28;20084;-64
2021/10/06 03:13:13;;;;;;;9.32;1.58;;;11.20;99.90;;;;;;5022926;28;20056;-63
2021/10/06 03:15:39;;;;;;;6.65;1.33;;;11.20;99.90;;;;;;5023319;28;20025;-63
2021/10/06 03:18:04;;;;;;;6.57;1.25;;;11.20;99.90;;;;;;5026106;28;20474;-63
2021/10/06 03:20:30;;;;;;;8.25;1.88;;;11.20;99.90;;;;;;5028885;28;20029;-63
2021/10/06 03:22:55;;;;;;;2.40;1.00;;;11.20;99.90;;;;;;5028482;28;20022;-63
2021/10/06 03:25:21;;;;;;;5.03;1.38;;;11.20;99.90;;;;;;5023761;28;20032;-64
2021/10/06 03:27:46;;;;;;;7.15;1.85;;;11.20;99.90;;;;;;5028725;28;20013;-64
2021/10/06 03:30:12;;;;;;;8.20;1.50;;;11.20;99.90;;;;;;5024390;28;20393;-63
2021/10/06 03:32:38;;;;;;;4.43;1.60;;;11.20;99.90;;;;;;5027481;28;20033;-63
2021/10/06 03:35:05;;;;;;;8.82;1.58;;;11.10;99.90;;;;;;5026871;28;20025;-63
2021/10/06 03:37:30;;;;;;;5.45;1.30;;;11.00;99.90;;;;;;5024226;28;20024;-64
2021/10/06 03:39:56;;;;;;;7.25;1.27;;;11.00;99.90;;;;;;5025644;28;20026;-63
2021/10/06 03:42:21;;;;;;;9.07;1.15;;;10.90;99.90;;;;;;5023143;28;20103;-64
2021/10/06 03:44:47;;;;;;;6.32;1.50;;;10.90;99.90;;;;;;5031339;28;20021;-63
2021/10/06 03:47:12;;;;;;;9.43;1.67;;;10.90;99.90;;;;;;5025308;28;20099;-64
2021/10/06 03:49:38;;;;;;;4.10;0.93;;;10.80;99.90;;;;;;5031191;28;20075;-63
2021/10/06 03:52:04;;;;;;;5.80;1.15;;;10.90;99.90;;;;;;5028282;28;20018;-63
2021/10/06 03:54:29;;;;;;;4.53;1.20;;;10.90;99.90;;;;;;5022553;28;20026;-64
2021/10/06 03:56:55;;;;;;;9.32;1.83;;;10.80;99.90;;;;;;5024934;28;20018;-64
2021/10/06 03:59:20;;;;;;;8.75;2.45;;;10.80;99.90;;;;;;5026100;28;20040;-64
2021/10/06 04:01:46;;;;;;;7.32;2.08;;;10.70;99.90;;;;;;5028016;28;20049;-64
2021/10/06 04:04:12;;;;;;;7.50;1.75;;;10.70;99.90;;;;;;5021563;28;20033;-64
2021/10/06 04:06:37;;;;;;;8.18;1.27;;;10.70;99.90;;;;;;5018563;28;20100;-65
2021/10/06 04:09:03;;;;;;;7.57;1.33;;;10.60;99.90;;;;;;5026228;28;20055;-65
2021/10/06 04:11:28;;;;;;;4.60;1.17;;;10.50;99.90;;;;;;5022274;28;20075;-65
2021/10/06 04:13:54;;;;;;;7.22;1.38;;;10.50;99.90;;;;;;5017889;28;20025;-65
2021/10/06 04:16:19;;;;;;;5.53;1.13;;;10.50;99.90;;;;;;5023012;28;20029;-65
2021/10/06 04:18:45;;;;;;;3.90;1.35;;;10.40;99.90;;;;;;5026315;28;20112;-65
2021/10/06 04:21:10;;;;;;;4.57;1.25;;;10.40;99.90;;;;;;5028080;28;20044;-65
2021/10/06 04:23:36;;;;;;;8.52;1.30;;;10.40;99.90;;;;;;5022875;28;20109;-65
2021/10/06 04:26:01;;;;;;;6.55;1.50;;;10.40;99.90;;;;;;5018776;28;20030;-64
2021/10/06 04:28:27;;;;;;;7.63;1.40;;;10.40;99.90;;;;;;5026658;28;20556;-64
2021/10/06 04:30:52;;;;;;;5.45;1.67;;;10.40;99.90;;;;;;5022504;28;20029;-64
2021/10/06 04:33:18;;;;;;;9.30;1.70;;;10.40;99.90;;;;;;5024394;28;20040;-64
2021/10/06 04:35:43;;;;;;;8.02;1.98;;;10.40;99.90;;;;;;5024724;28;20056;-64
2021/10/06 04:38:09;;;;;;;5.45;1.80;;;10.40;99.90;;;;;;5023110;28;20033;-64
2021/10/06 04:40:34;;;;;;;4.47;1.40;;;10.30;99.90;;;;;;5025266;28;20101;-64
2021/10/06 04:43:00;;;;;;;9.65;2.63;;;10.30;99.90;;;;;;5026775;28;20022;-64
2021/10/06 04:45:26;;;;;;;6.80;2.00;;;10.30;99.90;;;;;;5025715;28;20438;-64
2021/10/06 04:47:51;;;;;;;8.40;2.17;;;10.30;99.90;;;;;;5028479;28;20053;-64
2021/10/06 04:50:17;;;;;;;9.48;2.10;;;10.40;99.90;;;;;;5026837;28;20026;-64
2021/10/06 04:52:42;;;;;;;8.65;1.50;;;10.40;99.90;;;;;;5023178;28;20504;-64
2021/10/06 04:55:08;;;;;;;6.32;1.73;;;10.30;99.90;;;;;;5013418;28;20024;-64
2021/10/06 04:57:34;;;;;;;9.75;2.30;;;10.30;99.90;;;;;;5027565;28;20106;-64
2021/10/06 04:59:59;;;;;;;6.57;2.50;;;10.30;99.90;;;;;;5023172;28;20052;-64
2021/10/06 05:02:25;;;;;;;7.75;2.05;;;10.40;99.90;;;;;;5024273;28;20025;-64
2021/10/06 05:04:50;;;;;;;7.32;2.15;;;10.40;99.90;;;;;;5022108;28;20040;-64
2021/10/06 05:07:16;;;;;;;6.90;2.28;;;10.40;99.90;;;;;;5024247;28;20378;-64
2021/10/06 05:09:41;;;;;;;5.68;1.88;;;10.40;99.90;;;;;;5013242;28;20389;-64
2021/10/06 05:12:07;;;;;;;7.93;2.28;;;10.40;99.90;;;;;;5027610;28;20144;-64
2021/10/06 05:14:33;;;;;;;8.75;1.90;;;10.40;99.90;;;;;;5025027;28;20497;-64
2021/10/06 05:16:58;;;;;;;6.28;1.80;;;10.40;99.90;;;;;;5026959;28;20027;-64
2021/10/06 05:19:24;;;;;;;6.00;1.77;;;10.40;99.90;;;;;;5025297;28;20120;-64
2021/10/06 05:21:49;;;;;;;7.47;1.92;;;10.40;99.90;;;;;;5015521;28;20038;-64
2021/10/06 05:24:15;;;;;;;14.43;3.53;;;10.40;99.90;;;;;;5029070;28;20383;-64
2021/10/06 05:26:40;;;;;;;7.03;1.92;;;10.40;99.90;;;;;;5015372;28;20436;-63
2021/10/06 05:29:06;;;;;;;7.30;1.95;;;10.40;99.90;;;;;;5016705;28;20034;-63
2021/10/06 05:31:32;;;;;;;9.82;2.60;;;10.40;99.90;;;;;;5027411;28;20473;-63
2021/10/06 05:33:57;;;;;;;4.78;1.90;;;10.40;99.90;;;;;;5026961;28;20096;-63
2021/10/06 05:36:23;;;;;;;5.95;2.33;;;10.30;99.90;;;;;;5026540;28;20029;-63
2021/10/06 05:38:49;;;;;;;6.55;2.50;;;10.30;99.90;;;;;;5034959;28;20032;-63
2021/10/06 05:41:15;;;;;;;7.38;2.60;;;10.30;99.90;;;;;;5021500;28;20508;-63
2021/10/06 05:43:41;;;;;;;7.20;2.40;;;10.30;99.90;;;;;;5019111;28;20061;-63
2021/10/06 05:46:06;;;;;;;9.35;3.78;;;10.30;99.90;;;;;;5023894;28;20033;-63
2021/10/06 05:48:32;;;;;;;8.77;2.65;;;10.30;99.90;;;;;;5017526;28;20041;-63
2021/10/06 05:50:57;;;;;;;6.88;2.38;;;10.30;99.90;;;;;;5025825;28;20041;-63
2021/10/06 05:53:23;;;;;;;9.70;2.70;;;10.30;99.90;;;;;;5023052;28;20096;-64
2021/10/06 05:55:48;;;;;;;12.35;3.15;;;10.30;99.90;;;;;;5021491;28;20477;-63
2021/10/06 05:58:14;;;;;;;9.70;3.55;;;10.30;99.90;;;;;;5021778;28;20494;-63
2021/10/06 06:00:40;;;;;;;11.40;3.53;;;10.30;99.90;;;;;;5027535;28;20014;-63
2021/10/06 06:03:08;;;;;;;11.00;3.53;;;10.20;99.90;;;;;;5025452;28;20097;-63
2021/10/06 06:05:34;;;;;;;9.85;3.88;;;10.20;99.90;;;;;;5016911;28;20026;-63
2021/10/06 06:07:59;;;;;;;10.82;4.93;;;10.10;99.90;;;;;;5023152;28;20392;-63
2021/10/06 06:10:25;;;;;;;12.75;3.55;;;10.10;99.90;;;;;;5033191;28;20037;-63
2021/10/06 06:12:51;;;;;;;11.82;3.30;;;10.10;99.90;;;;;;5029527;28;20025;-63
2021/10/06 06:15:16;;;;;;;8.35;3.53;;;10.10;99.90;;;;;;5028052;28;20025;-63
2021/10/06 06:17:42;;;;;;;8.18;3.60;;;10.10;99.90;;;;;;5028368;28;20124;-63
2021/10/06 06:20:13;;;;;;;11.23;3.58;;;10.10;99.90;;;;;;5033949;28;20025;-63
2021/10/06 06:22:39;;;;;;;4.88;3.20;;;10.10;99.90;;;;;;5029527;28;20393;-63
2021/10/06 06:25:06;;;;;;;8.02;3.75;;;10.10;99.90;;;;;;5029037;28;20025;-63
2021/10/06 06:27:31;;;;;;;14.80;3.92;;;10.10;99.90;;;;;;5020952;28;20051;-63
2021/10/06 06:29:57;;;;;;;8.23;4.65;;;10.10;99.90;;;;;;5021224;28;20036;-63
2021/10/06 06:32:23;;;;;;;15.75;5.18;;;10.00;99.90;;;;;;5014002;28;20018;-63
2021/10/06 06:34:48;;;;;;;8.23;4.55;;;10.00;99.90;;;;;;5024828;28;20404;-63
2021/10/06 06:37:14;;;;;;;11.63;4.78;;;10.00;99.90;;;;;;5016816;28;20014;-64
2021/10/06 06:39:39;;;;;;;10.98;4.93;;;10.00;99.90;;;;;;5023112;28;20041;-64
2021/10/06 06:42:05;;;;;;;9.63;5.28;;;10.00;99.90;;;;;;5029092;28;20087;-64
2021/10/06 06:44:30;;;;;;;8.98;4.78;;;10.00;99.90;;;;;;5024215;28;20104;-64
2021/10/06 06:46:56;;;;;;;10.70;5.30;;;10.00;99.90;;;;;;5021432;28;20049;-64
2021/10/06 06:49:21;;;;;;;8.88;5.00;;;10.00;99.90;;;;;;5022174;28;20108;-64
2021/10/06 06:51:47;;;;;;;9.43;4.35;;;10.00;99.90;;;;;;5032018;28;20025;-64
2021/10/06 06:54:12;;;;;;;10.52;4.70;;;10.10;99.90;;;;;;5029641;28;20473;-64
2021/10/06 06:56:40;;;;;;;9.18;4.93;;;10.10;99.90;;;;;;5030069;28;20029;-64
2021/10/06 06:59:07;;;;;;;10.32;4.25;;;10.10;99.90;;;;;;5032358;28;20033;-64
2021/10/06 07:01:34;;;;;;;6.63;4.25;;;10.10;99.90;;;;;;5033092;28;20033;-64
2021/10/06 07:03:59;;;;;;;8.73;4.10;;;10.10;99.90;;;;;;5033242;28;20120;-64
2021/10/06 07:06:27;;;;;;;10.23;3.88;;;10.20;99.90;;;;;;5019285;28;20112;-64
2021/10/06 07:08:53;;;;;;;9.32;4.80;;;10.20;99.90;;;;;;5018354;28;20029;-64
2021/10/06 07:11:18;;;;;;;5.40;3.53;;;10.20;99.90;;;;;;5031927;28;20084;-64
2021/10/06 07:13:44;;;;;;;7.43;3.67;;;10.20;99.90;;;;;;5032477;28;20493;-65
2021/10/06 07:16:10;;;;;;;7.63;3.80;;;10.30;99.90;;;;;;5028979;28;20470;-64
2021/10/06 07:18:35;;;;;;;10.57;4.50;;;10.30;99.90;;;;;;5032833;28;20084;-64
2021/10/06 07:21:01;;;;;;;6.10;3.80;;;10.30;99.90;;;;;;5028331;28;20026;-64
2021/10/06 07:23:26;;;;;;;5.88;3.50;;;10.30;99.90;;;;;;5019599;28;20032;-64
2021/10/06 07:25:52;;;;;;;5.82;3.88;;;10.30;99.90;;;;;;5028782;28;20497;-64
2021/10/06 07:28:17;;;;;;;7.38;3.83;;;10.30;99.90;;;;;;5023972;28;20398;-64
2021/10/06 07:30:43;;;;;;;7.88;3.88;;;10.40;99.90;;;;;;5013042;28;20481;-64
2021/10/06 07:33:08;;;;;;;4.93;3.78;;;10.30;99.90;;;;;;5018520;28;20075;-64
2021/10/06 07:35:34;;;;;;;8.55;4.30;;;10.40;99.90;;;;;;5022416;28;20025;-64
2021/10/06 07:38:00;;;;;;;5.45;4.20;;;10.40;99.90;;;;;;5015398;28;20038;-64
2021/10/06 07:40:25;;;;;;;5.13;4.00;;;10.50;99.90;;;;;;5026544;28;20474;-64
2021/10/06 07:42:54;;;;;;;3.95;3.55;;;10.50;99.90;;;;;;5012937;28;20386;-64
2021/10/06 07:45:19;;;;;;;8.18;3.65;;;10.60;99.90;;;;;;5012627;28;20038;-64
2021/10/06 07:47:45;;;;;;;6.25;4.00;;;10.60;99.90;;;;;;5018922;28;20509;-64
2021/10/06 07:50:10;;;;;;;8.25;5.25;;;10.60;99.90;;;;;;5020364;28;20030;-65
2021/10/06 07:52:36;;;;;;;6.13;3.88;;;10.60;99.90;;;;;;5015364;28;20072;-65
2021/10/06 07:55:02;;;;;;;7.47;4.10;;;10.60;99.90;;;;;;5004428;28;20489;-65
2021/10/06 07:57:27;;;;;;;5.10;3.72;;;10.60;99.90;;;;;;5014730;28;20105;-64
2021/10/06 07:59:54;;;;;;;6.53;4.00;;;10.60;99.90;;;;;;5024310;28;20053;-64
2021/10/06 08:02:20;;;;;;;8.70;3.83;;;10.60;99.90;;;;;;5012577;28;20026;-65
2021/10/06 08:04:45;;;;;;;10.32;4.45;;;10.70;99.90;;;;;;5011457;28;20084;-64
2021/10/06 08:07:11;;;;;;;6.55;4.20;;;10.70;99.90;;;;;;5024709;28;20451;-65
2021/10/06 08:09:36;;;;;;;6.65;3.85;;;10.70;99.90;;;;;;5027508;28;20022;-65
2021/10/06 08:12:02;;;;;;;5.38;3.60;;;10.70;99.90;;;;;;5012186;28;20021;-65
2021/10/06 08:14:27;;;;;;;3.70;3.20;;;10.80;99.90;;;;;;5017395;28;20057;-65
2021/10/06 08:16:53;;;;;;;5.43;3.60;;;10.80;99.90;;;;;;5021430;28;20030;-65
2021/10/06 08:19:18;;;;;;;6.70;4.40;;;10.90;99.90;;;;;;5020428;28;20518;-65
2021/10/06 08:21:45;;;;;;;5.53;4.20;;;10.90;99.90;;;;;;5021108;28;20034;-65
2021/10/06 08:24:11;;;;;;;3.95;2.75;;;11.00;99.90;;;;;;5018751;28;20033;-65
2021/10/06 08:26:36;;;;;;;4.80;3.22;;;10.90;99.90;;;;;;5016155;28;20026;-65
2021/10/06 08:29:02;;;;;;;4.28;3.45;;;10.90;99.90;;;;;;5017194;28;20014;-64
2021/10/06 08:31:27;;;;;;;4.20;3.72;;;10.90;99.90;;;;;;5017496;28;20097;-64
2021/10/06 08:33:53;;;;;;;4.47;3.55;;;10.90;99.90;;;;;;5021221;28;20482;-65
2021/10/06 08:36:18;;;;;;;3.13;2.83;;;10.90;99.90;;;;;;5018213;28;20385;-66
2021/10/06 08:38:44;;;;;;;4.75;3.40;;;10.90;99.90;;;;;;5015977;28;20627;-65
2021/10/06 08:41:10;;;;;;;4.40;3.30;;;10.90;99.90;;;;;;5018222;28;20022;-64
2021/10/06 08:43:37;;;;;;;4.30;3.78;;;10.90;99.90;;;;;;5016054;28;20030;-65
2021/10/06 08:46:03;;;;;;;3.33;2.83;;;10.90;99.90;;;;;;5018280;28;20026;-64
2021/10/06 08:48:28;;;;;;;4.93;3.15;;;10.90;99.90;;;;;;5021344;28;20046;-65
2021/10/06 08:50:54;;;;;;;4.22;3.25;;;10.80;99.90;;;;;;5017759;28;20025;-64
2021/10/06 08:53:20;;;;;;;4.90;4.15;;;10.90;99.90;;;;;;5016430;28;20117;-65
2021/10/06 08:55:45;;;;;;;4.00;3.25;;;10.90;99.90;;;;;;5024062;28;20021;-64
2021/10/06 08:58:11;;;;;;;4.82;4.32;;;10.90;99.90;;;;;;5028101;28;20053;-65
2021/10/06 09:00:56;;;;;;;5.38;4.68;;;10.90;99.90;;;;;;5034709;28;20033;-64
2021/10/06 09:03:33;;;;;;;6.15;3.80;;;11.00;99.90;;;;;;5029383;28;20045;-65
2021/10/06 09:06:06;;;;;;;8.13;4.68;;;11.10;99.90;;;;;;5019968;28;20048;-65
2021/10/06 09:08:33;;;;;;;6.43;4.40;;;11.10;99.90;;;;;;5014686;28;20025;-65
2021/10/06 09:10:59;;;;;;;5.38;4.80;;;11.10;99.90;;;;;;5015754;28;20017;-65
2021/10/06 09:13:27;;;;;;;6.13;4.95;;;11.10;99.90;;;;;;5018791;28;20572;-65
2021/10/06 09:15:53;;;;;;;5.45;4.90;;;11.10;99.90;;;;;;5025445;28;20037;-65
2021/10/06 09:18:24;;;;;;;4.68;4.28;;;11.10;99.90;;;;;;5022999;28;20033;-66
2021/10/06 09:20:50;;;;;;;6.07;4.78;;;11.10;99.90;;;;;;5017681;28;20022;-65
2021/10/06 09:23:18;;;;;;;8.10;5.18;;;11.10;99.90;;;;;;5018851;28;20489;-65
2021/10/06 09:26:01;;;;;;;6.70;5.32;;;11.10;99.90;;;;;;5026218;28;20017;-65
2021/10/06 09:28:36;;;;;;;9.05;5.30;;;11.10;99.90;;;;;;5027168;28;20021;-65
2021/10/06 09:31:12;;;;;;;5.72;4.90;;;11.10;99.90;;;;;;5017537;28;20092;-65
2021/10/06 09:33:42;;;;;;;6.10;4.93;;;11.20;99.90;;;;;;5027286;28;20041;-65
2021/10/06 09:36:13;;;;;;;9.13;5.15;;;11.10;99.90;;;;;;5027934;28;20041;-65
2021/10/06 09:38:56;;;;;;;6.60;5.32;;;11.10;99.90;;;;;;5023806;28;20075;-65
2021/10/06 09:41:37;;;;;;;6.43;5.18;;;11.20;99.90;;;;;;5022238;28;20029;-65
2021/10/06 09:44:08;;;;;;;6.38;5.22;;;11.20;99.90;;;;;;5024183;28;20036;-65
2021/10/06 09:46:46;;;;;;;5.78;5.18;;;11.20;99.90;;;;;;5022114;28;20038;-65
2021/10/06 09:49:30;;;;;;;7.40;4.75;;;11.30;99.90;;;;;;5023056;28;20021;-65
2021/10/06 09:52:14;;;;;;;7.95;5.15;;;11.40;99.90;;;;;;5017660;28;20473;-65
2021/10/06 09:54:52;;;;;;;7.45;4.47;;;11.40;99.90;;;;;;5025235;28;20080;-65
2021/10/06 09:57:24;;;;;;;6.88;4.47;;;11.50;99.90;;;;;;5015226;28;20018;-65
2021/10/06 09:59:51;;;;;;;6.47;4.00;;;11.50;99.90;;;;;;5014163;28;20029;-65
2021/10/06 10:02:18;;;;;;;9.02;4.00;;;11.50;99.90;;;;;;5027919;28;20018;-65
2021/10/06 10:04:44;;;;;;;6.72;4.10;;;11.60;99.90;;;;;;5014249;28;20026;-65
2021/10/06 10:07:10;;;;;;;7.68;3.58;;;11.60;99.90;;;;;;5027419;28;20516;-65
2021/10/06 10:09:36;;;;;;;8.82;3.70;;;11.60;99.90;;;;;;5014301;28;20465;-65
2021/10/06 10:12:02;;;;;;;7.45;3.83;;;11.70;99.90;;;;;;5014276;28;20022;-65
2021/10/06 10:14:28;;;;;;;6.88;3.35;;;11.80;99.90;;;;;;5027879;28;20106;-65
2021/10/06 10:16:53;;;;;;;9.68;4.10;;;12.00;99.90;;;;;;5020405;28;20018;-65
2021/10/06 10:19:19;;;;;;;6.15;3.15;;;12.00;99.90;;;;;;5014969;28;20084;-65
2021/10/06 10:21:48;;;;;;;8.48;2.97;;;12.10;99.90;;;;;;5025311;28;20084;-65
2021/10/06 10:24:20;;;;;;;7.70;2.80;;;12.20;99.90;;;;;;5032813;28;20037;-65
2021/10/06 10:27:07;;;;;;;8.77;2.95;;;12.20;99.90;;;;;;5032910;28;20092;-65
2021/10/06 10:29:34;;;;;;;6.95;2.15;;;12.20;99.90;;;;;;5023226;28;20022;-65
2021/10/06 10:32:02;;;;;;;7.40;3.10;;;12.10;99.90;;;;;;5017112;28;21321;-65
2021/10/06 10:34:52;;;;;;;5.07;2.03;;;12.10;99.90;;;;;;5004020;28;20101;-65
2021/10/06 10:37:17;;;;;;;6.65;2.30;;;12.20;99.90;;;;;;5029249;28;20022;-65
2021/10/06 10:39:43;;;;;;;8.35;2.63;;;12.20;99.90;;;;;;5033616;28;20029;-65
2021/10/06 10:42:08;;;;;;;5.43;2.10;;;12.20;99.90;;;;;;5019155;28;20034;-65
2021/10/06 10:44:37;;;;;;;8.60;2.45;;;12.10;99.90;;;;;;5020069;28;20029;-66
2021/10/06 10:47:06;;;;;;;6.20;1.88;;;12.10;99.90;;;;;;5009886;28;20206;-65
2021/10/06 10:49:46;;;;;;;5.00;1.83;;;12.10;99.90;;;;;;5009177;28;20045;-65
2021/10/06 10:52:12;;;;;;;7.35;2.75;;;12.20;99.90;;;;;;5010733;28;20026;-65
2021/10/06 10:54:40;;;;;;;11.40;2.33;;;12.10;99.90;;;;;;5028506;28;20096;-65
2021/10/06 10:57:25;;;;;;;5.78;2.15;;;12.20;99.90;;;;;;5029592;28;20024;-65
2021/10/06 10:59:52;;;;;;;5.63;1.50;;;12.20;99.90;;;;;;5029126;28;20057;-66
2021/10/06 11:02:20;;;;;;;5.50;2.03;;;12.20;99.90;;;;;;5025575;28;20018;-66
2021/10/06 11:04:54;;;;;;;2.05;1.25;;;12.20;99.90;;;;;;5023547;28;20029;-66
2021/10/06 11:07:21;;;;;;;6.18;2.20;;;12.20;99.90;;;;;;5026174;28;20029;-66
2021/10/06 11:09:54;;;;;;;3.55;1.30;;;12.20;99.90;;;;;;5025811;28;20053;-66
2021/10/06 11:12:20;;;;;;;4.97;1.23;;;12.30;99.90;;;;;;5031087;28;20025;-66
2021/10/06 11:14:47;;;;;;;4.75;1.52;;;12.40;99.90;;;;;;5029375;28;20052;-66
2021/10/06 11:17:21;;;;;;;4.78;1.05;;;12.60;99.90;;;;;;5023115;28;20025;-66
2021/10/06 11:19:55;;;;;;;6.40;1.05;;;12.90;99.90;;;;;;5019852;28;20109;-66
2021/10/06 11:22:23;;;;;;;2.42;1.20;;;13.40;99.90;;;;;;5027681;28;20017;-66
2021/10/06 11:24:54;;;;;;;5.57;0.90;;;13.90;99.90;;;;;;5031673;28;20021;-66
2021/10/06 11:27:21;;;;;;;3.42;0.95;;;14.30;99.90;;;;;;5029149;28;20101;-66
2021/10/06 11:29:50;;;;;;;3.47;0.80;;;14.60;99.90;;;;;;5025894;28;20109;-66
2021/10/06 11:32:16;;;;;;;3.00;0.85;;;14.60;99.90;;;;;;5013720;28;20115;-66
2021/10/06 11:34:53;;;;;;;3.92;0.90;;;14.40;99.90;;;;;;5019171;28;20326;-66
2021/10/06 11:37:25;;;;;;;3.47;1.02;;;14.30;99.90;;;;;;5020750;28;20034;-66
2021/10/06 11:39:51;;;;;;;6.78;1.00;;;14.20;99.90;;;;;;5026157;28;20025;-66
2021/10/06 11:42:17;;;;;;;3.83;1.02;;;14.10;99.90;;;;;;5026694;28;20017;-66
2021/10/06 11:44:44;;;;;;;5.35;0.90;;;14.00;99.90;;;;;;5021336;28;20029;-66
2021/10/06 11:47:12;;;;;;;4.68;1.17;;;14.00;99.90;;;;;;5020095;28;20049;-66
2021/10/06 11:49:40;;;;;;;5.80;1.33;;;14.00;99.90;;;;;;5024005;28;20378;-66
2021/10/06 11:52:07;;;;;;;8.35;1.40;;;13.90;99.90;;;;;;5021444;28;20029;-66
2021/10/06 11:54:33;;;;;;;5.15;1.50;;;13.90;99.90;;;;;;5023545;28;20018;-66
2021/10/06 11:57:02;;;;;;;4.93;0.98;;;13.80;99.90;;;;;;5027848;28;20079;-66
2021/10/06 11:59:30;;;;;;;5.03;1.05;;;13.80;99.90;;;;;;5020563;28;20022;-66
2021/10/06 12:01:58;;;;;;;5.13;1.40;;;13.80;99.90;;;;;;5021640;28;20029;-66
2021/10/06 12:04:27;;;;;;;6.68;1.40;;;13.70;99.90;;;;;;5023962;28;20486;-66
2021/10/06 12:07:01;;;;;;;8.73;1.25;;;13.80;99.90;;;;;;5024482;28;20564;-65
2021/10/06 12:09:36;;;;;;;7.68;1.95;;;13.70;99.90;;;;;;5031463;28;20026;-66
2021/10/06 12:12:08;;;;;;;6.63;1.55;;;13.70;99.90;;;;;;5023101;28;20567;-65
2021/10/06 12:14:42;;;;;;;9.70;1.83;;;13.60;99.90;;;;;;5012461;28;20022;-65
2021/10/06 12:17:11;;;;;;;5.28;1.70;;;13.60;99.90;;;;;;5019145;28;20017;-65
2021/10/06 12:19:38;;;;;;;10.95;1.95;;;13.60;99.90;;;;;;5019973;28;20030;-65
2021/10/06 12:22:05;;;;;;;6.35;1.58;;;13.60;99.90;;;;;;5018684;28;20036;-65
2021/10/06 12:24:31;;;;;;;11.18;2.38;;;13.60;99.90;;;;;;5015106;28;20117;-65
2021/10/06 12:26:57;;;;;;;9.05;2.20;;;13.60;99.90;;;;;;5028956;28;20025;-65
2021/10/06 12:29:28;;;;;;;5.57;1.17;;;13.70;99.90;;;;;;5027121;28;20558;-65
2021/10/06 12:32:11;;;;;;;7.88;1.65;;;13.70;99.90;;;;;;5035538;28;20021;-66
2021/10/06 12:34:36;;;;;;;5.38;1.05;;;13.70;99.90;;;;;;5024567;28;20021;-66
2021/10/06 12:37:04;;;;;;;3.75;1.25;;;13.70;99.90;;;;;;5019831;28;20100;-65
2021/10/06 12:39:30;;;;;;;8.10;1.42;;;13.70;99.90;;;;;;5025958;28;20029;-66
2021/10/06 12:41:58;;;;;;;5.10;1.27;;;13.70;99.90;;;;;;5015938;28;20060;-66
2021/10/06 12:44:44;;;;;;;7.63;1.52;;;13.70;99.90;;;;;;5015999;28;20049;-66